createdAt,value
2023-04-06T00:01:49.433Z,63.65
2023-04-06T00:04:17.159Z,63.38
2023-04-06T00:06:44.808Z,63.58
2023-04-06T00:09:12.494Z,63.77
2023-04-06T00:11:41.544Z,63.68
2023-04-06T00:14:09.253Z,63.16
2023-04-06T00:16:36.995Z,64.22
2023-04-06T00:19:04.710Z,65.78
2023-04-06T00:21:33.165Z,66.65
2023-04-06T00:24:00.965Z,64.58
2023-04-06T00:26:28.644Z,62.71
2023-04-06T00:28:59.519Z,63.30
2023-04-06T00:31:27.277Z,64.04
2023-04-06T00:33:55.079Z,63.67
2023-04-06T00:36:22.828Z,62.82
2023-04-06T00:38:50.764Z,62.36
2023-04-06T00:41:19.539Z,63.40
2023-04-06T00:43:47.214Z,63.24
2023-04-06T00:46:16.343Z,64.01
2023-04-06T00:48:44.162Z,63.79
2023-04-06T00:51:11.847Z,64.73
2023-04-06T00:53:39.482Z,65.19
2023-04-06T00:56:07.546Z,65.43
2023-04-06T00:58:38.891Z,65.36
2023-04-06T01:01:06.665Z,65.77
2023-04-06T01:03:35.896Z,66.14
2023-04-06T01:06:03.617Z,66.55
2023-04-06T01:08:31.415Z,67.48
2023-04-06T01:11:01.759Z,67.10
2023-04-06T01:13:29.609Z,65.69
2023-04-06T01:15:57.654Z,66.05
2023-04-06T01:18:28.014Z,65.59
2023-04-06T01:20:57.596Z,65.20
2023-04-06T01:23:26.713Z,65.70
2023-04-06T01:25:54.640Z,66.71
2023-04-06T01:28:22.340Z,67.59
2023-04-06T01:30:50.073Z,68.49
2023-04-06T01:33:17.721Z,69.05
2023-04-06T01:35:45.434Z,69.98
2023-04-06T01:38:13.168Z,70.72
2023-04-06T01:40:42.214Z,70.84
2023-04-06T01:43:09.941Z,71.48
2023-04-06T01:45:37.602Z,71.36
2023-04-06T01:48:05.689Z,71.74
2023-04-06T01:50:33.417Z,72.07
2023-04-06T01:53:01.441Z,71.98
2023-04-06T01:55:29.140Z,71.74
2023-04-06T01:57:58.231Z,71.49
2023-04-06T02:00:25.971Z,71.35
2023-04-06T02:02:53.874Z,71.58
2023-04-06T02:05:21.815Z,71.87
2023-04-06T02:07:50.035Z,71.51
2023-04-06T02:10:17.703Z,71.65
2023-04-06T02:12:45.456Z,72.19
2023-04-06T02:15:15.408Z,71.92
2023-04-06T02:17:43.352Z,72.53
2023-04-06T02:20:11.929Z,72.44
2023-04-06T02:22:39.618Z,72.95
2023-04-06T02:25:07.843Z,73.23
2023-04-06T02:27:35.603Z,73.79
2023-04-06T02:30:03.402Z,73.71
2023-04-06T02:32:32.446Z,73.37
2023-04-06T02:35:00.379Z,73.52
2023-04-06T02:37:28.037Z,73.47
2023-04-06T02:39:56.391Z,73.60
2023-04-06T02:42:24.090Z,73.15
2023-04-06T02:44:51.759Z,73.25
2023-04-06T02:47:19.482Z,73.50
2023-04-06T02:49:48.738Z,73.40
2023-04-06T02:52:16.610Z,72.92
2023-04-06T02:54:44.262Z,72.66
2023-04-06T02:57:11.991Z,72.74
2023-04-06T02:59:39.744Z,72.98
2023-04-06T03:02:07.525Z,73.33
2023-04-06T03:04:35.176Z,73.73
2023-04-06T03:07:04.305Z,73.65
2023-04-06T03:09:32.030Z,74.28
2023-04-06T03:11:59.722Z,74.19
2023-04-06T03:14:27.353Z,74.40
2023-04-06T03:16:55.067Z,74.62
2023-04-06T03:19:22.769Z,75.30
2023-04-06T03:21:50.703Z,75.62
2023-04-06T03:24:19.783Z,75.75
2023-04-06T03:26:47.449Z,76.08
2023-04-06T03:29:15.918Z,77.18
2023-04-06T03:31:43.827Z,77.25
2023-04-06T03:34:11.637Z,77.10
2023-04-06T03:36:39.428Z,77.25
2023-04-06T03:39:07.295Z,77.14
2023-04-06T03:41:36.843Z,77.55
2023-04-06T03:44:04.616Z,77.72
2023-04-06T03:49:00.055Z,77.15
2023-04-06T03:51:27.722Z,77.25
2023-04-06T03:53:55.717Z,77.39
2023-04-06T03:56:23.520Z,77.17
2023-04-06T03:58:52.785Z,77.07
2023-04-06T04:01:20.536Z,77.28
2023-04-06T04:03:50.281Z,77.54
2023-04-06T04:06:19.301Z,77.19
2023-04-06T04:08:47.005Z,77.49
2023-04-06T04:11:16.117Z,78.27
2023-04-06T04:13:43.798Z,78.87
2023-04-06T04:16:12.890Z,78.64
2023-04-06T04:18:40.712Z,78.66
2023-04-06T04:21:08.460Z,78.57
2023-04-06T04:23:37.376Z,79.14
2023-04-06T04:26:05.746Z,79.45
2023-04-06T04:28:33.457Z,79.72
2023-04-06T04:31:01.414Z,79.82
2023-04-06T04:33:30.490Z,79.94
2023-04-06T04:35:58.251Z,80.44
2023-04-06T04:38:25.925Z,80.48
2023-04-06T04:40:53.638Z,80.77
2023-04-06T04:43:21.289Z,80.73
2023-04-06T04:45:49.078Z,80.67
2023-04-06T04:48:16.783Z,80.60
2023-04-06T04:50:45.966Z,80.52
2023-04-06T04:53:13.685Z,80.78
2023-04-06T04:55:41.791Z,80.21
2023-04-06T04:58:11.967Z,79.90
2023-04-06T05:00:39.708Z,80.17
2023-04-06T05:03:07.664Z,79.85
2023-04-06T05:05:35.431Z,80.04
2023-04-06T05:08:04.850Z,79.71
2023-04-06T05:10:32.539Z,80.10
2023-04-06T05:13:00.281Z,79.88
2023-04-06T05:15:28.003Z,79.71
2023-04-06T05:17:56.038Z,80.15
2023-04-06T05:20:23.812Z,80.08
2023-04-06T05:22:51.513Z,79.67
2023-04-06T05:25:20.654Z,79.82
2023-04-06T05:27:48.410Z,79.50
2023-04-06T05:30:16.770Z,79.65
2023-04-06T05:32:45.377Z,79.80
2023-04-06T05:35:13.457Z,80.02
2023-04-06T05:37:42.096Z,79.97
2023-04-06T05:40:10.651Z,80.45
2023-04-06T05:42:40.143Z,80.62
2023-04-06T05:45:09.194Z,80.77
2023-04-06T05:47:37.020Z,80.44
2023-04-06T05:50:05.658Z,80.29
2023-04-06T05:52:33.520Z,80.76
2023-04-06T05:55:01.205Z,80.24
2023-04-06T05:57:29.160Z,80.34
2023-04-06T05:59:58.368Z,81.32
2023-04-06T06:02:26.171Z,81.62
2023-04-06T06:04:54.047Z,80.98
2023-04-06T06:07:21.798Z,79.85
2023-04-06T06:09:49.492Z,80.15
2023-04-06T06:12:17.190Z,80.00
2023-04-06T06:14:44.863Z,80.39
2023-04-06T06:17:16.135Z,80.05
2023-04-06T06:19:43.861Z,80.20
2023-04-06T06:22:11.556Z,80.48
2023-04-06T06:24:39.423Z,80.88
2023-04-06T06:27:08.687Z,79.84
2023-04-06T06:29:36.620Z,79.58
2023-04-06T06:32:04.416Z,79.13
2023-04-06T06:34:33.652Z,78.39
2023-04-06T06:37:01.688Z,78.08
2023-04-06T06:39:29.556Z,77.49
2023-04-06T06:41:57.537Z,77.44
2023-04-06T06:44:26.119Z,77.38
2023-04-06T06:46:53.849Z,77.45
2023-04-06T06:49:21.605Z,76.96
2023-04-06T06:51:50.747Z,77.01
2023-04-06T06:54:18.556Z,77.63
2023-04-06T06:56:46.305Z,77.60
2023-04-06T06:59:14.176Z,77.03
2023-04-06T07:01:42.073Z,76.91
2023-04-06T07:04:10.202Z,76.35
2023-04-06T07:06:38.280Z,75.82
2023-04-06T07:09:07.470Z,76.48
2023-04-06T07:11:35.272Z,75.97
2023-04-06T07:14:03.011Z,75.54
2023-04-06T07:16:31.025Z,74.95
2023-04-06T07:18:58.822Z,75.12
2023-04-06T07:21:27.609Z,75.00
2023-04-06T07:23:55.322Z,75.27
2023-04-06T07:26:24.354Z,75.19
2023-04-06T07:28:52.033Z,74.88
2023-04-06T07:31:19.758Z,74.48
2023-04-06T07:33:48.005Z,74.27
2023-04-06T07:36:15.934Z,74.16
2023-04-06T07:38:43.659Z,73.77
2023-04-06T07:41:11.442Z,73.78
2023-04-06T07:43:40.530Z,73.78
2023-04-06T07:46:08.436Z,73.17
2023-04-06T07:48:36.240Z,72.77
2023-04-06T07:51:04.485Z,73.19
2023-04-06T07:53:32.731Z,72.86
2023-04-06T07:56:00.742Z,72.36
2023-04-06T07:58:28.483Z,70.77
2023-04-06T08:00:58.695Z,71.02
2023-04-06T08:03:27.362Z,72.91
2023-04-06T08:05:56.212Z,73.33
2023-04-06T08:08:24.074Z,71.44
2023-04-06T08:10:51.740Z,73.17
2023-04-06T08:13:20.239Z,71.70
2023-04-06T08:15:48.145Z,72.68
2023-04-06T08:18:17.334Z,72.96
2023-04-06T08:20:44.999Z,71.65
2023-04-06T08:23:12.803Z,72.17
2023-04-06T08:25:40.540Z,70.30
2023-04-06T08:28:09.753Z,71.40
2023-04-06T08:30:38.213Z,70.89
2023-04-06T08:33:06.197Z,71.03
2023-04-06T08:35:35.630Z,70.24
2023-04-06T08:38:03.439Z,69.79
2023-04-06T08:40:31.227Z,69.50
2023-04-06T08:43:03.005Z,69.69
2023-04-06T08:45:30.820Z,69.24
2023-04-06T08:48:02.635Z,67.51
2023-04-06T08:50:31.836Z,67.86
2023-04-06T08:53:01.367Z,67.98
2023-04-06T08:55:29.273Z,68.11
2023-04-06T08:57:57.223Z,68.07
2023-04-06T09:00:25.211Z,67.76
2023-04-06T09:02:56.436Z,66.86
2023-04-06T09:05:26.538Z,65.39
2023-04-06T09:07:54.570Z,65.94
2023-04-06T09:10:26.088Z,64.69
2023-04-06T09:12:53.780Z,64.82
2023-04-06T09:15:24.727Z,64.68
2023-04-06T09:17:54.858Z,63.68
2023-04-06T09:20:26.813Z,62.75
2023-04-06T09:22:54.567Z,63.75
2023-04-06T09:25:24.881Z,62.82
2023-04-06T09:28:01.096Z,61.58
2023-04-06T09:30:28.993Z,62.60
2023-04-06T09:32:57.938Z,62.56
2023-04-06T09:35:27.433Z,61.83
2023-04-06T09:37:56.248Z,62.63
2023-04-06T09:40:25.816Z,64.33
2023-04-06T09:42:55.266Z,64.29
2023-04-06T09:45:23.063Z,63.42
2023-04-06T09:47:52.320Z,63.28
2023-04-06T09:50:21.209Z,64.46
2023-04-06T09:52:51.384Z,62.92
2023-04-06T09:55:23.620Z,63.36
2023-04-06T09:57:55.497Z,62.73
2023-04-06T10:00:24.418Z,62.42
2023-04-06T10:02:55.517Z,61.26
2023-04-06T10:05:29.670Z,61.35
2023-04-06T10:08:01.150Z,60.79
2023-04-06T10:10:31.377Z,59.95
2023-04-06T10:13:00.973Z,60.58
2023-04-06T10:15:29.722Z,59.59
2023-04-06T10:17:57.709Z,59.76
2023-04-06T10:20:30.826Z,59.51
2023-04-06T10:23:01.821Z,60.17
2023-04-06T10:25:30.484Z,58.15
2023-04-06T10:28:03.647Z,58.24
2023-04-06T10:30:32.047Z,56.82
2023-04-06T10:32:59.821Z,55.99
2023-04-06T10:35:38.548Z,56.52
2023-04-06T10:38:07.319Z,57.20
2023-04-06T10:40:38.061Z,55.44
2023-04-06T10:43:14.735Z,54.73
2023-04-06T10:45:44.145Z,54.15
2023-04-06T10:48:15.907Z,54.07
2023-04-06T10:50:43.925Z,53.63
2023-04-06T10:53:11.664Z,52.66
2023-04-06T10:55:42.190Z,53.20
2023-04-06T10:58:10.054Z,53.67
2023-04-06T11:00:50.674Z,53.52
2023-04-06T11:03:19.999Z,53.54
2023-04-06T11:05:48.513Z,53.55
2023-04-06T11:08:26.947Z,51.76
2023-04-06T11:10:54.819Z,51.50
2023-04-06T11:13:22.765Z,52.39
2023-04-06T11:15:51.818Z,50.85
2023-04-06T11:18:20.767Z,50.86
2023-04-06T11:20:50.340Z,50.75
2023-04-06T11:23:24.906Z,49.74
2023-04-06T11:25:53.763Z,49.44
2023-04-06T11:28:21.907Z,49.62
2023-04-06T11:30:51.117Z,49.90
2023-04-06T11:33:25.708Z,48.62
2023-04-06T11:35:53.485Z,47.09
2023-04-06T11:38:21.961Z,48.71
2023-04-06T11:40:55.023Z,49.40
2023-04-06T11:43:28.612Z,50.11
2023-04-06T11:46:04.098Z,49.70
2023-04-06T11:48:32.311Z,50.04
2023-04-06T11:51:01.886Z,45.21
2023-04-06T11:53:30.692Z,45.00
2023-04-06T11:55:58.477Z,44.01
2023-04-06T11:58:26.221Z,44.08
2023-04-06T12:00:54.093Z,42.44
2023-04-06T12:03:23.496Z,43.03
2023-04-06T12:05:51.306Z,42.71
2023-04-06T12:08:19.032Z,41.93
2023-04-06T12:10:46.735Z,41.97
2023-04-06T12:13:14.443Z,43.05
2023-04-06T12:15:42.245Z,41.77
2023-04-06T12:18:10.154Z,41.57
2023-04-06T12:20:39.262Z,41.54
2023-04-06T12:23:06.998Z,42.14
2023-04-06T12:25:34.692Z,40.69
2023-04-06T12:28:02.388Z,41.08
2023-04-06T12:30:30.320Z,42.19
2023-04-06T12:32:58.207Z,41.87
2023-04-06T12:35:26.173Z,42.48
2023-04-06T12:37:55.338Z,40.96
2023-04-06T12:40:23.000Z,41.91
2023-04-06T12:42:50.651Z,42.27
2023-04-06T12:45:20.489Z,41.50
2023-04-06T12:47:48.326Z,41.89
2023-04-06T12:50:16.016Z,42.35
2023-04-06T12:52:43.695Z,41.43
2023-04-06T12:55:12.909Z,41.73
2023-04-06T12:57:41.216Z,40.89
2023-04-06T13:00:10.093Z,41.57
2023-04-06T13:02:38.038Z,41.78
2023-04-06T13:05:06.381Z,41.63
2023-04-06T13:07:35.797Z,40.33
2023-04-06T13:10:03.614Z,40.50
2023-04-06T13:12:32.722Z,40.80
2023-04-06T13:15:00.988Z,41.53
2023-04-06T13:17:29.569Z,40.81
2023-04-06T13:19:57.485Z,40.24
2023-04-06T13:22:25.659Z,41.50
2023-04-06T13:24:53.334Z,41.14
2023-04-06T13:27:21.255Z,41.50
2023-04-06T13:29:50.332Z,41.80
2023-04-06T13:32:18.068Z,42.38
2023-04-06T13:34:45.991Z,41.76
2023-04-06T13:37:14.451Z,41.85
2023-04-06T13:39:42.200Z,41.93
2023-04-06T13:42:11.130Z,41.67
2023-04-06T13:44:38.902Z,41.48
2023-04-06T13:47:08.039Z,42.06
2023-04-06T13:49:36.320Z,42.83
2023-04-06T13:52:04.192Z,43.23
2023-04-06T13:54:31.817Z,42.35
2023-04-06T13:56:59.543Z,43.22
2023-04-06T13:59:27.220Z,42.74
2023-04-06T14:01:55.056Z,42.78
2023-04-06T14:04:24.048Z,43.84
2023-04-06T14:06:51.737Z,43.97
2023-04-06T14:09:19.593Z,44.26
2023-04-06T14:11:47.401Z,44.15
2023-04-06T14:14:15.541Z,44.25
2023-04-06T14:16:44.961Z,44.51
2023-04-06T14:19:13.083Z,44.02
2023-04-06T14:21:42.088Z,44.01
2023-04-06T14:24:10.426Z,44.63
2023-04-06T14:26:38.551Z,44.80
2023-04-06T14:29:06.657Z,44.16
2023-04-06T14:31:34.505Z,45.02
2023-04-06T14:34:03.323Z,44.60
2023-04-06T14:36:36.983Z,44.89
2023-04-06T14:39:06.760Z,44.83
2023-04-06T14:41:35.701Z,44.34
2023-04-06T14:44:03.945Z,44.46
2023-04-06T14:46:31.686Z,44.90
2023-04-06T14:48:59.731Z,45.23
2023-04-06T14:51:28.165Z,44.77
2023-04-06T14:53:55.767Z,44.73
2023-04-06T14:56:25.508Z,45.63
2023-04-06T14:58:53.523Z,45.07
2023-04-06T15:01:21.823Z,45.68
2023-04-06T15:03:49.938Z,45.58
2023-04-06T15:06:21.399Z,45.47
2023-04-06T15:08:49.517Z,45.17
2023-04-06T15:11:17.186Z,45.58
2023-04-06T15:13:46.251Z,46.29
2023-04-06T15:16:15.379Z,45.70
2023-04-06T15:18:43.030Z,46.17
2023-04-06T15:21:12.470Z,46.85
2023-04-06T15:23:40.084Z,46.84
2023-04-06T15:26:07.644Z,46.61
2023-04-06T15:28:35.338Z,46.56
2023-04-06T15:31:07.064Z,47.10
2023-04-06T15:33:35.008Z,47.78
2023-04-06T15:36:04.918Z,47.86
2023-04-06T15:38:33.074Z,48.48
2023-04-06T15:41:00.660Z,48.93
2023-04-06T15:43:28.357Z,49.31
2023-04-06T15:45:57.178Z,49.06
2023-04-06T15:48:26.245Z,50.02
2023-04-06T15:50:53.782Z,50.57
2023-04-06T15:53:21.329Z,51.05
2023-04-06T15:55:48.838Z,51.27
2023-04-06T15:58:16.485Z,50.36
2023-04-06T16:00:44.107Z,51.10
2023-04-06T16:03:12.125Z,51.67
2023-04-06T16:05:48.999Z,52.58
2023-04-06T16:08:27.054Z,53.16
2023-04-06T16:10:54.641Z,53.11
2023-04-06T16:13:22.238Z,53.57
2023-04-06T16:15:50.934Z,54.16
2023-04-06T16:18:18.738Z,54.69
2023-04-06T16:20:47.769Z,55.21
2023-04-06T16:23:15.475Z,54.95
2023-04-06T16:25:43.194Z,55.29
2023-04-06T16:28:10.927Z,56.32
2023-04-06T16:30:38.613Z,56.64
2023-04-06T16:33:06.336Z,57.58
2023-04-06T16:35:35.324Z,56.79
2023-04-06T16:38:04.317Z,57.00
2023-04-06T16:40:31.984Z,57.14
2023-04-06T16:42:59.572Z,58.23
2023-04-06T16:45:27.116Z,58.54
2023-04-06T16:47:54.746Z,59.00
2023-04-06T16:50:22.393Z,59.10
2023-04-06T16:52:50.085Z,59.35
2023-04-06T16:55:19.155Z,59.67
2023-04-06T16:57:49.068Z,60.16
2023-04-06T17:00:17.823Z,60.90
2023-04-06T17:02:48.093Z,61.18
2023-04-06T17:05:18.136Z,61.65
2023-04-06T17:07:45.743Z,62.45
2023-04-06T17:10:13.367Z,62.98
2023-04-06T17:12:42.322Z,63.53
2023-04-06T17:15:10.737Z,63.47
2023-04-06T17:17:38.983Z,64.23
2023-04-06T17:20:08.070Z,64.69
2023-04-06T17:22:36.014Z,64.83
2023-04-06T17:25:05.412Z,66.97
2023-04-06T17:27:33.042Z,68.30
2023-04-06T17:30:06.335Z,68.13
2023-04-06T17:32:34.763Z,67.97
2023-04-06T17:35:02.618Z,68.88
2023-04-06T17:37:30.311Z,70.61
2023-04-06T17:39:58.358Z,71.42
2023-04-06T17:42:25.950Z,73.53
2023-04-06T17:44:53.700Z,76.21
2023-04-06T17:47:22.717Z,78.04
2023-04-06T17:49:50.374Z,79.39
2023-04-06T17:52:17.980Z,80.96
2023-04-06T17:54:46.117Z,81.06
2023-04-06T17:57:13.632Z,82.05
2023-04-06T17:59:43.883Z,84.59
2023-04-06T18:02:13.983Z,85.57
2023-04-06T18:04:44.160Z,86.31
2023-04-06T18:07:12.229Z,87.39
2023-04-06T18:09:39.963Z,88.57
2023-04-06T18:12:08.277Z,88.48
2023-04-06T18:14:36.545Z,88.89
2023-04-06T18:17:04.167Z,90.20
2023-04-06T18:19:32.279Z,89.81
2023-04-06T18:22:01.299Z,89.72
2023-04-06T18:24:41.283Z,90.43
2023-04-06T18:27:10.261Z,92.29
2023-04-06T18:29:38.075Z,92.79
2023-04-06T18:32:06.972Z,93.38
2023-04-06T18:34:34.743Z,94.28
2023-04-06T18:37:03.706Z,95.50
2023-04-06T18:39:31.494Z,94.67
2023-04-06T18:41:59.414Z,96.05
2023-04-06T18:44:27.070Z,96.98
2023-04-06T18:46:55.631Z,96.58
2023-04-06T18:49:23.420Z,99.33
2023-04-06T18:51:51.191Z,100.00
2023-04-06T18:54:21.007Z,100.00
2023-04-06T18:56:49.265Z,98.68
2023-04-06T18:59:17.771Z,99.18
2023-04-06T19:01:46.830Z,100.00
2023-04-06T19:04:14.833Z,100.00
2023-04-06T19:06:42.866Z,100.00
2023-04-06T19:09:10.537Z,99.74
2023-04-06T19:11:39.497Z,100.00
2023-04-06T19:14:07.148Z,100.00
2023-04-06T19:16:40.692Z,100.00
2023-04-06T19:19:08.598Z,100.00
2023-04-06T19:21:36.290Z,100.00
2023-04-06T19:24:03.828Z,100.00
2023-04-06T19:26:32.672Z,100.00
2023-04-06T19:29:01.775Z,100.00
2023-04-06T19:31:29.413Z,100.00
2023-04-06T19:33:57.274Z,100.00
2023-04-06T19:36:25.095Z,100.00
2023-04-06T19:38:52.968Z,100.00
2023-04-06T19:41:21.454Z,100.00
2023-04-06T19:43:49.062Z,100.00
2023-04-06T19:46:18.099Z,100.00
2023-04-06T19:48:45.704Z,100.00
2023-04-06T19:51:13.443Z,100.00
2023-04-06T19:53:41.148Z,100.00
2023-04-06T19:56:10.063Z,100.00
2023-04-06T19:58:38.213Z,100.00
2023-04-06T20:01:06.014Z,100.00
2023-04-06T20:03:36.422Z,100.00
2023-04-06T20:06:04.284Z,100.00
2023-04-06T20:08:31.853Z,100.00
2023-04-06T20:11:03.131Z,100.00
2023-04-06T20:13:31.433Z,100.00
2023-04-06T20:15:59.076Z,100.00
2023-04-06T20:18:27.175Z,100.00
2023-04-06T20:20:56.154Z,100.00
2023-04-06T20:23:23.846Z,100.00
2023-04-06T20:25:51.531Z,100.00
2023-04-06T20:28:19.099Z,100.00
2023-04-06T20:30:46.714Z,100.00
2023-04-06T20:33:14.372Z,100.00
2023-04-06T20:35:42.112Z,100.00
2023-04-06T20:38:11.139Z,100.00
2023-04-06T20:40:39.973Z,100.00
2023-04-06T20:43:09.934Z,100.00
2023-04-06T20:45:38.961Z,100.00
2023-04-06T20:48:06.713Z,100.00
2023-04-06T20:50:34.349Z,100.00
2023-04-06T20:53:01.951Z,100.00
2023-04-06T20:55:31.271Z,100.00
2023-04-06T20:57:58.833Z,100.00
2023-04-06T21:00:26.566Z,100.00
2023-04-06T21:02:54.442Z,100.00
2023-04-06T21:05:22.221Z,100.00
2023-04-06T21:07:49.850Z,100.00
2023-04-06T21:10:17.523Z,100.00
2023-04-06T21:12:46.578Z,100.00
2023-04-06T21:15:14.433Z,100.00
2023-04-06T21:17:41.961Z,100.00
2023-04-06T21:20:11.214Z,100.00
2023-04-06T21:22:39.391Z,100.00
2023-04-06T21:25:08.199Z,100.00
2023-04-06T21:27:35.773Z,100.00
2023-04-06T21:30:05.358Z,100.00
2023-04-06T21:32:32.913Z,100.00
2023-04-06T21:35:00.599Z,100.00
2023-04-06T21:37:28.887Z,100.00
2023-04-06T21:39:57.580Z,100.00
2023-04-06T21:42:25.240Z,100.00
2023-04-06T21:44:53.125Z,100.00
2023-04-06T21:47:22.028Z,100.00
2023-04-06T21:49:49.742Z,100.00
2023-04-06T21:52:17.395Z,100.00
2023-04-06T21:54:45.094Z,100.00
2023-04-06T21:57:13.465Z,100.00
2023-04-06T21:59:41.199Z,100.00
2023-04-06T22:02:08.869Z,100.00
2023-04-06T22:04:38.000Z,100.00
2023-04-06T22:07:05.733Z,100.00
2023-04-06T22:09:33.496Z,100.00
2023-04-06T22:12:01.093Z,100.00
2023-04-06T22:14:28.672Z,100.00
2023-04-06T22:16:56.276Z,100.00
2023-04-06T22:19:23.834Z,100.00
2023-04-06T22:21:52.912Z,100.00
2023-04-06T22:24:21.002Z,100.00
2023-04-06T22:26:48.577Z,100.00
2023-04-06T22:29:17.085Z,100.00
2023-04-06T22:31:46.765Z,100.00
2023-04-06T22:34:15.214Z,100.00
2023-04-06T22:36:43.010Z,100.00
2023-04-06T22:39:12.144Z,100.00
2023-04-06T22:41:39.769Z,100.00
2023-04-06T22:44:07.406Z,100.00
2023-04-06T22:46:34.968Z,100.00
2023-04-06T22:49:03.975Z,100.00
2023-04-06T22:51:32.701Z,100.00
2023-04-06T22:54:00.466Z,100.00
2023-04-06T22:56:29.374Z,100.00
2023-04-06T22:58:56.975Z,100.00
2023-04-06T23:01:24.680Z,100.00
2023-04-06T23:03:52.356Z,100.00
2023-04-06T23:06:20.039Z,100.00
2023-04-06T23:08:48.007Z,100.00
2023-04-06T23:11:15.604Z,100.00
2023-04-06T23:13:44.518Z,100.00
2023-04-06T23:16:12.168Z,100.00
2023-04-06T23:18:39.875Z,100.00
2023-04-06T23:21:08.315Z,100.00
2023-04-06T23:23:35.896Z,100.00
2023-04-06T23:26:03.567Z,100.00
2023-04-06T23:28:31.451Z,100.00
2023-04-06T23:31:00.358Z,100.00
2023-04-06T23:33:29.004Z,100.00
2023-04-06T23:35:56.648Z,100.00
2023-04-06T23:38:24.305Z,100.00
2023-04-06T23:40:51.895Z,100.00
2023-04-06T23:43:19.553Z,100.00
2023-04-06T23:45:47.082Z,100.00
2023-04-06T23:48:16.004Z,100.00
2023-04-06T23:50:43.608Z,100.00
2023-04-06T23:53:11.213Z,100.00
2023-04-06T23:55:38.801Z,100.00
2023-04-06T23:58:06.481Z,100.00
